• Join FlightAware (Why Join?)
  • Login
  • US Flag 
12:02AM EDT


 

Airport Tracker/Info


-or-


 

Live Flight TrackerFlight Track Log ✈ LIA312 ✈ 15-Jun-2013 ✈ TNCM / SXM - TISX / STX

Flight Track Log - Related Links

Times and Time Zones

All times are in EDT time to prevent confusion due to time zone crossing. See the LIA312 flight status page for this flight to view local times or setup timezone preferences in your user account.

Time Position Orientation Groundspeed Altitude Reporting Facility
EDT Latitude Longitude Course Direction KTS MPH feet Rate Location/Type
04:23PM 17.9667 -63.1167 255° West 160 184 3,900  Level San Juan Center
04:24PM 17.9167 -63.1333 198° South 160 184 5,600 1,500 Climbing San Juan Center
04:25PM 17.8833 -63.1333 180° South 160 184 7,000 1,380 Climbing San Juan Center
04:26PM 17.8667 -63.1667 242° Southwest 170 196 8,400 1,020 Climbing San Juan Center
04:27PM 17.8833 -63.2167 289° West 190 219 9,100 720 Climbing San Juan Center
04:28PM 17.9000 -63.2833 285° West 240 276 9,900 840 Climbing San Juan Center
04:29PM 17.9631 -63.4642 255° West  Level FlightAware Approximate
04:29PM 17.9000 -63.3500 270° West 230 265 10,800  Level San Juan Center
04:31PM 17.9167 -63.4833 278° West 250 288 12,000 360 Climbing San Juan Center
04:32PM 17.9167 -63.5667 270° West 270 311 12,000  Level San Juan Center
04:33PM 17.9167 -63.6500 270° West 270 311 12,000  Level San Juan Center
04:34PM 17.9167 -63.7167 270° West 270 311 12,000  Level San Juan Center
04:35PM 17.9000 -63.8000 258° West 270 311 12,000  Level San Juan Center
04:36PM 17.8833 -63.8833 258° West 270 311 12,000  Level San Juan Center
04:37PM 17.8667 -63.9667 258° West 270 311 12,000  Level San Juan Center
04:38PM 17.8500 -64.0333 255° West 270 311 12,000 -240 Level San Juan Center
04:39PM 17.8333 -64.1167 258° West 270 311 11,600 -660 Descending San Juan Center
04:40PM 17.8000 -64.2000 247° West 290 334 10,700 -960 Descending San Juan Center
04:41PM 17.7833 -64.2833 258° West 290 334 9,700 -960 Descending San Juan Center
04:43PM 17.7500 -64.3667 247° West 290 334 8,800 -1,020 Descending San Juan Center
04:44PM 17.7167 -64.4333 242° Southwest 280 322 7,700 -1,200 Descending San Juan Center
04:45PM 17.7000 -64.5167 258° West 280 322 6,400 -1,380 Descending San Juan Center
04:46PM 17.6833 -64.5833 255° West 240 276 5,000 -1,500 Descending San Juan Center
04:47PM 17.6667 -64.6500 255° West 220 253 3,400 -1,440 Descending San Juan Center
04:48PM 17.6667 -64.7000 270° West 210 242 2,200 -960 Descending San Juan Center
04:49PM 17.6667 -64.7667 270° West 210 242 1,500 -360 Descending San Juan Center
04:50PM 17.6667 -64.8333 270° West 190 219 1,500 -300 Level San Juan Center
04:51PM 17.6833 -64.8333 360° North 200 230 900 -600 Descending San Juan Center